Airfield :
LOGIN :

Register | Disclaimer

   EN    FR    IT 

 










Legend :    VFR   Marginal VFR   IFR   Intensive IFR   Very Intensive IFR
Visi :
Ceiling :
>= 8 km
>= 3000ft
5 to 8 km
1000 to 3000 ft
1500m to 5 km
500 to 1000 ft
800 to 1500m
200 to 500 ft
< 800m
< 200 ft
Symbols :   Thunderstorms  Fog  Heavy snow  Heavy precipitations  Wind > 20 kt
SIGMETs :     Misc.  Thunderstorms  Icing  Turbulence  Mountain Waves  Volcanic Ashes







- Airport Elevation : 112 ft
- IATA code : KIR


EIKY - Kerry Farranfore

CURRENT METAR :
  • 201730Z 04006KT 340V080 9999 BKN020 OVC036 07/03 Q1011

EXPIRED METARs :
  • 201700Z 04006KT 360V090 9999 BKN026 BKN031 07/03 Q1011
  • 201630Z 04008KT 330V110 9999 FEW029 SCT046 07/03 Q1011
  • 201600Z 03007KT 330V070 9999 FEW025 BKN039 07/04 Q1011
  • 201530Z 04006KT 010V090 9999 FEW030 BKN035 07/03 Q1012
  • 201500Z 04006KT 010V090 9999 FEW027 SCT032 OVC039 07/03 Q1012

TAF TAF EIKY
Valid from the 20 at 18:00 until the 20 at 21:00 UTC


201700Z 2018/2021 04009KT 9999 FEW020 SCT030
PROB30
TEMPO 2018/2021 BKN013
No reported NOTAMs for that airfield.



MET'MAP, your aeronautical weather chart ! - Copyright ORBIFLY December 2007 - Disclaimer

ORBIFLY MET'MAP TEAM :

Programming & Development : Alexandra Zaïnal
Concept & Development : Baudouin d'Aumeries
Co-Development & Prog : Marc-Olivier Méhu
Technical & hardware support : Manuel Goepfert

Contact : metmap@orbifly.com




SOURCES & CREDITS :

   NOAA